Time;durP1;ratioP1;P1;durP2;ratioP2;P2;SDS_P1;SDS_P2;PMS_P1;PMS_P2;Temp;Humidity;BMP_temperature;BMP_pressure;BME280_temperature;BME280_humidity;BME280_pressure;Samples;Min_cycle;Max_cycle;Signal;HPM_P1;HPM_P2
2022/12/29 14:46:43;;;;;;;7.97;1.65;;;;;;;;;;4998519;27;1293039;-61
2022/12/29 14:49:15;;;;;;;2.35;1.10;;;;;;;;;;5015139;28;86813;-60
2022/12/29 14:51:42;;;;;;;6.15;2.05;;;;;;;;;;5014994;28;88245;-61
2022/12/29 14:54:27;;;;;;;6.03;1.88;;;;;;;;;;5014553;28;88263;-61
2022/12/29 14:56:56;;;;;;;10.23;2.38;;;;;;;;;;5014619;28;88089;-61
2022/12/29 14:59:23;;;;;;;9.20;1.90;;;;;;;;;;5013665;28;88776;-61
2022/12/29 15:01:51;;;;;;;9.75;2.20;;;;;;;;;;5016886;28;87475;-61
2022/12/29 15:04:20;;;;;;;8.43;2.08;;;;;;;;;;5014411;28;87868;-61
2022/12/29 15:06:48;;;;;;;9.57;2.50;;;;;;;;;;5026218;28;86861;-61
2022/12/29 15:09:23;;;;;;;9.05;2.40;;;;;;;;;;5021555;28;89330;-62
2022/12/29 15:11:51;;;;;;;9.70;2.10;;;;;;;;;;5013183;28;87840;-61
2022/12/29 15:14:26;;;;;;;10.98;2.83;;;;;;;;;;5009853;28;87479;-61
2022/12/29 15:16:53;;;;;;;12.55;2.88;;;;;;;;;;4999920;28;88277;-61
2022/12/29 15:19:23;;;;;;;16.02;3.08;;;;;;;;;;5012863;28;87349;-61
2022/12/29 15:21:49;;;;;;;14.10;2.35;;;;;;;;;;5013009;28;87569;-61
2022/12/29 15:24:16;;;;;;;8.68;2.08;;;;;;;;;;5011448;28;87891;-61
2022/12/29 15:26:45;;;;;;;17.50;2.33;;;;;;;;;;5013054;28;87462;-61
2022/12/29 15:29:37;;;;;;;17.88;3.50;;;;;;;;;;5015597;28;87969;-61
2022/12/29 15:32:30;;;;;;;16.40;2.78;;;;;;;;;;5007576;28;87387;-61
2022/12/29 15:35:01;;;;;;;15.38;2.67;;;;;;;;;;4994353;28;87524;-61
2022/12/29 15:37:31;;;;;;;10.05;2.60;;;;;;;;;;5011107;28;86805;-61
2022/12/29 15:39:58;;;;;;;;;;;;;;;;;;5014053;28;87457;-61
2022/12/29 15:42:27;;;;;;;13.00;3.17;;;;;;;;;;5000730;28;118257;-61
2022/12/29 15:44:54;;;;;;;14.75;3.30;;;;;;;;;;5000323;28;86877;-60
2022/12/29 15:47:35;;;;;;;20.35;3.40;;;;;;;;;;5007784;28;87370;-61
2022/12/29 15:50:22;;;;;;;17.42;3.45;;;;;;;;;;5007400;28;87713;-62
2022/12/29 15:52:48;;;;;;;9.10;2.30;;;;;;;;;;5009073;28;87715;-61
2022/12/29 15:55:20;;;;;;;9.82;2.25;;;;;;;;;;5013827;28;87992;-61
2022/12/29 15:57:46;;;;;;;12.63;2.85;;;;;;;;;;4997808;28;88541;-61
2022/12/29 16:00:22;;;;;;;17.73;3.40;;;;;;;;;;4989375;28;87376;-61
2022/12/29 16:02:49;;;;;;;19.42;3.00;;;;;;;;;;4998767;28;88829;-62
2022/12/29 16:05:16;;;;;;;9.85;3.03;;;;;;;;;;4991511;28;91036;-63
2022/12/29 16:07:58;;;;;;;21.67;3.42;;;;;;;;;;4993882;28;91280;-64
2022/12/29 16:10:33;;;;;;;19.10;2.92;;;;;;;;;;4984769;28;86752;-63
2022/12/29 16:13:04;;;;;;;15.68;2.80;;;;;;;;;;4992438;28;87687;-63
2022/12/29 16:15:30;;;;;;;15.00;2.63;;;;;;;;;;4998061;28;87324;-61
2022/12/29 16:17:57;;;;;;;13.80;2.70;;;;;;;;;;4999023;28;87840;-62
2022/12/29 16:20:24;;;;;;;13.40;2.25;;;;;;;;;;4999188;28;87150;-62
2022/12/29 16:23:00;;;;;;;15.25;2.40;;;;;;;;;;4999921;28;87741;-61
2022/12/29 16:25:31;;;;;;;10.57;2.03;;;;;;;;;;4997521;28;88141;-61
2022/12/29 16:28:01;;;;;;;15.00;3.20;;;;;;;;;;4997376;28;88770;-62
2022/12/29 16:30:28;;;;;;;9.43;2.07;;;;;;;;;;4999187;28;87497;-62
2022/12/29 16:33:01;;;;;;;13.40;2.78;;;;;;;;;;4999389;28;86879;-61
2022/12/29 16:35:29;;;;;;;15.00;2.78;;;;;;;;;;4997618;28;90131;-61
2022/12/29 16:38:15;;;;;;;17.38;2.75;;;;;;;;;;4996528;28;87711;-61
2022/12/29 16:40:54;;;;;;;15.07;2.25;;;;;;;;;;5000098;28;87421;-61
2022/12/29 16:43:22;;;;;;;4.90;1.67;;;;;;;;;;4999384;28;87505;-62
2022/12/29 16:45:48;;;;;;;12.73;1.67;;;;;;;;;;4997141;28;87814;-61
2022/12/29 16:48:22;;;;;;;8.82;2.05;;;;;;;;;;4981636;28;88618;-62
2022/12/29 16:50:49;;;;;;;11.90;2.38;;;;;;;;;;4992727;28;87968;-61
2022/12/29 16:53:24;;;;;;;12.45;2.45;;;;;;;;;;4990562;28;88273;-61
2022/12/29 16:55:54;;;;;;;12.80;2.50;;;;;;;;;;4990544;28;87763;-62
2022/12/29 16:58:22;;;;;;;11.93;2.58;;;;;;;;;;4998574;28;90985;-61
2022/12/29 17:00:49;;;;;;;9.82;1.80;;;;;;;;;;5001348;28;87035;-63
2022/12/29 17:03:15;;;;;;;8.75;1.90;;;;;;;;;;4999369;28;87694;-62
2022/12/29 17:05:42;;;;;;;10.70;2.30;;;;;;;;;;4998754;28;90683;-62
2022/12/29 17:08:22;;;;;;;13.57;2.70;;;;;;;;;;4979814;28;89102;-62
2022/12/29 17:13:34;;;;;;;13.52;2.08;;;;;;;;;;4980213;28;116948;-62
2022/12/29 17:16:01;;;;;;;11.63;2.50;;;;;;;;;;4985429;28;86718;-62
2022/12/29 17:18:27;;;;;;;15.93;3.88;;;;;;;;;;4979340;28;86746;-62
2022/12/29 17:20:53;;;;;;;7.32;1.80;;;;;;;;;;4991693;28;87837;-61
2022/12/29 17:23:19;;;;;;;12.80;2.00;;;;;;;;;;4997649;28;87789;-62
2022/12/29 17:25:53;;;;;;;13.73;2.85;;;;;;;;;;4993746;28;89755;-62
2022/12/29 17:28:21;;;;;;;12.65;3.67;;;;;;;;;;4998057;28;87389;-62
2022/12/29 17:30:48;;;;;;;19.98;5.47;;;;;;;;;;4992364;28;89705;-62
2022/12/29 17:33:16;;;;;;;20.77;3.05;;;;;;;;;;4990054;28;88900;-62
2022/12/29 17:35:43;;;;;;;9.93;2.65;;;;;;;;;;4999590;28;88571;-62
2022/12/29 17:38:19;;;;;;;10.43;2.95;;;;;;;;;;4999536;28;87821;-62
2022/12/29 17:40:46;;;;;;;14.63;3.25;;;;;;;;;;4995604;28;88983;-62
2022/12/29 17:43:13;;;;;;;15.32;2.60;;;;;;;;;;4982389;28;87436;-62
2022/12/29 17:45:40;;;;;;;15.38;3.35;;;;;;;;;;4994723;28;87949;-62
2022/12/29 17:48:13;;;;;;;9.10;2.85;;;;;;;;;;4998890;28;87647;-61
2022/12/29 17:50:40;;;;;;;22.83;4.53;;;;;;;;;;4975344;28;87510;-62
2022/12/29 17:53:10;;;;;;;14.63;5.60;;;;;;;;;;4997637;28;88130;-62
2022/12/29 17:55:36;;;;;;;20.30;3.17;;;;;;;;;;4975296;28;87294;-61
2022/12/29 17:58:24;;;;;;;11.40;2.50;;;;;;;;;;4998850;28;88751;-62
2022/12/29 18:00:52;;;;;;;13.43;2.60;;;;;;;;;;4993605;28;87873;-61
2022/12/29 18:03:29;;;;;;;11.43;1.95;;;;;;;;;;4991001;28;87372;-62
2022/12/29 18:05:56;;;;;;;12.32;2.42;;;;;;;;;;5000524;28;87590;-62
2022/12/29 18:08:22;;;;;;;10.50;2.65;;;;;;;;;;4998185;28;87717;-62
2022/12/29 18:10:52;;;;;;;12.93;2.90;;;;;;;;;;4993809;28;88461;-62
2022/12/29 18:13:19;;;;;;;17.77;3.30;;;;;;;;;;4993621;28;89030;-62
2022/12/29 18:15:45;;;;;;;23.20;3.15;;;;;;;;;;4991218;28;87574;-62
2022/12/29 18:18:13;;;;;;;17.02;3.08;;;;;;;;;;4978494;28;87512;-62
2022/12/29 18:20:41;;;;;;;17.10;3.55;;;;;;;;;;4978273;28;86879;-62
2022/12/29 18:23:18;;;;;;;19.58;2.72;;;;;;;;;;4994816;28;87152;-61
2022/12/29 18:25:48;;;;;;;11.18;2.17;;;;;;;;;;4997608;28;87901;-62
2022/12/29 18:28:14;;;;;;;16.95;3.33;;;;;;;;;;4998941;28;88213;-62
2022/12/29 18:30:40;;;;;;;11.98;2.88;;;;;;;;;;4995958;28;86884;-62
2022/12/29 18:33:12;;;;;;;15.20;2.80;;;;;;;;;;4995791;28;88312;-62
2022/12/29 18:35:57;;;;;;;20.25;2.85;;;;;;;;;;4978886;28;88687;-61
2022/12/29 18:38:23;;;;;;;19.58;2.50;;;;;;;;;;4960798;28;87594;-62
2022/12/29 18:40:49;;;;;;;12.57;2.85;;;;;;;;;;4981392;28;89372;-61
2022/12/29 18:43:17;;;;;;;15.90;3.05;;;;;;;;;;4982665;28;87436;-62
2022/12/29 18:45:47;;;;;;;17.83;3.40;;;;;;;;;;4995165;28;87545;-62
2022/12/29 18:48:13;;;;;;;17.58;2.85;;;;;;;;;;4992665;28;88334;-62
2022/12/29 18:50:40;;;;;;;23.15;3.65;;;;;;;;;;4993616;28;87399;-62
2022/12/29 18:53:13;;;;;;;26.55;5.28;;;;;;;;;;4992834;28;87847;-62
2022/12/29 18:55:40;;;;;;;14.20;3.58;;;;;;;;;;4978421;28;88399;-62
2022/12/29 18:58:06;;;;;;;23.92;3.55;;;;;;;;;;4983683;28;88986;-61
2022/12/29 19:00:33;;;;;;;24.80;3.67;;;;;;;;;;4997271;28;88261;-61
2022/12/29 19:02:59;;;;;;;16.30;2.65;;;;;;;;;;4989795;28;88361;-61
2022/12/29 19:05:30;;;;;;;19.10;3.10;;;;;;;;;;4992590;28;90176;-61
2022/12/29 19:07:57;;;;;;;26.58;3.65;;;;;;;;;;4995826;28;88901;-62
2022/12/29 19:10:24;;;;;;;29.05;3.90;;;;;;;;;;4996587;28;90587;-62
2022/12/29 19:12:50;;;;;;;25.85;3.22;;;;;;;;;;4996354;28;88069;-62
2022/12/29 19:15:17;;;;;;;22.63;4.35;;;;;;;;;;4991427;28;89304;-61
2022/12/29 19:17:43;;;;;;;15.95;3.30;;;;;;;;;;4976599;28;89106;-61
2022/12/29 19:20:20;;;;;;;19.00;3.40;;;;;;;;;;4990661;28;88121;-61
2022/12/29 19:22:46;;;;;;;24.98;4.07;;;;;;;;;;4988054;28;90206;-61
2022/12/29 19:25:13;;;;;;;23.67;4.47;;;;;;;;;;4995979;28;90068;-61
2022/12/29 19:27:39;;;;;;;28.50;4.88;;;;;;;;;;4994559;28;89769;-62
2022/12/29 19:30:06;;;;;;;21.27;4.70;;;;;;;;;;4995992;28;88785;-61
2022/12/29 19:32:32;;;;;;;18.23;4.25;;;;;;;;;;4999306;28;91046;-61
2022/12/29 19:34:58;;;;;;;21.20;5.15;;;;;;;;;;4982971;28;89671;-62
2022/12/29 19:37:24;;;;;;;18.27;3.45;;;;;;;;;;4997925;28;89087;-61
2022/12/29 19:39:52;;;;;;;25.30;4.65;;;;;;;;;;4989729;28;88369;-62
2022/12/29 19:42:18;;;;;;;26.20;4.45;;;;;;;;;;4999683;28;89186;-60
2022/12/29 19:44:44;;;;;;;23.58;3.55;;;;;;;;;;4999079;28;89537;-63
2022/12/29 19:47:12;;;;;;;28.33;4.30;;;;;;;;;;4998938;28;88252;-62
2022/12/29 19:49:39;;;;;;;18.30;3.17;;;;;;;;;;4997132;28;89271;-62
2022/12/29 19:52:05;;;;;;;31.02;4.90;;;;;;;;;;5000062;28;89058;-62
2022/12/29 19:54:31;;;;;;;18.27;3.25;;;;;;;;;;4983973;28;88266;-61
2022/12/29 19:56:58;;;;;;;21.27;3.88;;;;;;;;;;4997415;28;89710;-62
2022/12/29 19:59:24;;;;;;;26.30;4.07;;;;;;;;;;4989187;28;88179;-62
2022/12/29 20:01:50;;;;;;;20.65;3.42;;;;;;;;;;4997848;28;88943;-62
2022/12/29 20:04:17;;;;;;;25.75;3.67;;;;;;;;;;4999670;28;88960;-62
2022/12/29 20:06:43;;;;;;;21.48;4.53;;;;;;;;;;4998820;28;88027;-62
2022/12/29 20:09:10;;;;;;;25.27;4.47;;;;;;;;;;4999316;28;89923;-62
2022/12/29 20:11:36;;;;;;;18.10;4.20;;;;;;;;;;4998559;28;88897;-61
2022/12/29 20:14:02;;;;;;;25.95;4.30;;;;;;;;;;4993094;28;88194;-62
2022/12/29 20:16:29;;;;;;;22.98;4.20;;;;;;;;;;4965356;28;87995;-62
2022/12/29 20:18:55;;;;;;;21.38;3.88;;;;;;;;;;4996518;28;88196;-61
2022/12/29 20:21:23;;;;;;;25.73;4.38;;;;;;;;;;4998999;28;89179;-61
2022/12/29 20:23:50;;;;;;;24.55;4.13;;;;;;;;;;4997710;28;88805;-61
2022/12/29 20:26:22;;;;;;;20.83;4.07;;;;;;;;;;4997320;28;88017;-61
2022/12/29 20:28:49;;;;;;;33.45;7.00;;;;;;;;;;4989583;28;91790;-61
2022/12/29 20:31:18;;;;;;;21.02;6.93;;;;;;;;;;4998067;28;89057;-61
2022/12/29 20:33:45;;;;;;;30.15;4.20;;;;;;;;;;4997916;28;88176;-61
2022/12/29 20:36:16;;;;;;;23.10;4.55;;;;;;;;;;4997414;28;88686;-61
2022/12/29 20:38:44;;;;;;;34.78;5.32;;;;;;;;;;5001246;28;88418;-62
2022/12/29 20:41:12;;;;;;;27.73;3.92;;;;;;;;;;4999416;28;91451;-61
2022/12/29 20:43:38;;;;;;;24.77;4.68;;;;;;;;;;4980336;28;89009;-61
2022/12/29 20:46:05;;;;;;;28.40;4.85;;;;;;;;;;4988056;28;88837;-61
2022/12/29 20:48:32;;;;;;;29.23;3.97;;;;;;;;;;4993670;28;89893;-61
2022/12/29 20:50:59;;;;;;;19.02;4.63;;;;;;;;;;4970899;28;91746;-61
2022/12/29 20:53:26;;;;;;;32.95;4.82;;;;;;;;;;4987246;28;89383;-61
2022/12/29 20:55:53;;;;;;;27.90;4.53;;;;;;;;;;4978507;28;89123;-61
2022/12/29 20:58:19;;;;;;;20.52;4.13;;;;;;;;;;4995145;28;89343;-62
2022/12/29 21:00:50;;;;;;;25.92;4.72;;;;;;;;;;5001770;28;88977;-61
2022/12/29 21:03:16;;;;;;;24.77;4.18;;;;;;;;;;4980929;28;88607;-62
2022/12/29 21:05:43;;;;;;;35.90;4.55;;;;;;;;;;4980608;28;88060;-62
2022/12/29 21:08:10;;;;;;;27.52;4.53;;;;;;;;;;4996020;28;90030;-62
2022/12/29 21:10:36;;;;;;;28.27;5.80;;;;;;;;;;4989400;28;89578;-62
2022/12/29 21:13:03;;;;;;;22.15;4.07;;;;;;;;;;4985999;28;88352;-62
2022/12/29 21:15:30;;;;;;;24.48;4.90;;;;;;;;;;4995806;28;91170;-63
2022/12/29 21:17:57;;;;;;;28.17;4.07;;;;;;;;;;4996873;28;89532;-61
2022/12/29 21:20:30;;;;;;;25.83;4.03;;;;;;;;;;5000916;28;88113;-63
2022/12/29 21:22:58;;;;;;;23.40;4.50;;;;;;;;;;4997912;28;88259;-62
2022/12/29 21:25:25;;;;;;;22.67;3.80;;;;;;;;;;4996133;28;88189;-63
2022/12/29 21:27:51;;;;;;;31.50;5.25;;;;;;;;;;4996631;28;89901;-62
2022/12/29 21:30:18;;;;;;;30.90;4.93;;;;;;;;;;4997898;28;89248;-62
2022/12/29 21:32:44;;;;;;;27.48;4.32;;;;;;;;;;4997820;28;88193;-62
2022/12/29 21:35:10;;;;;;;28.10;4.00;;;;;;;;;;4994495;28;88851;-62
2022/12/29 21:37:36;;;;;;;19.60;3.75;;;;;;;;;;4985232;28;90361;-62
2022/12/29 21:40:03;;;;;;;26.10;4.22;;;;;;;;;;4978657;28;88797;-62
2022/12/29 21:42:30;;;;;;;23.90;4.68;;;;;;;;;;4999167;28;89411;-63
2022/12/29 21:50:30;;;;;;;26.92;3.95;;;;;;;;;;4996515;28;88980;-62
2022/12/29 21:52:57;;;;;;;18.65;3.50;;;;;;;;;;4997251;28;89088;-62
2022/12/29 21:55:23;;;;;;;18.85;3.85;;;;;;;;;;4996231;28;87940;-62
2022/12/29 22:14:23;;;;;;;18.23;3.35;;;;;;;;;;4996847;28;88012;-63
2022/12/29 22:16:49;;;;;;;23.77;4.28;;;;;;;;;;4993887;28;88793;-62
